sensor_id;sensor_type;location;lat;lon;timestamp;P1;durP1;ratioP1;P2;durP2;ratioP2
56712;SDS011;42589;45.536;9.032;2023-06-05T00:01:26;13.55;;;11.63;;
56712;SDS011;42589;45.536;9.032;2023-06-05T00:04:27;13.38;;;11.50;;
56712;SDS011;42589;45.536;9.032;2023-06-05T00:07:28;12.68;;;10.98;;
56712;SDS011;42589;45.536;9.032;2023-06-05T00:10:29;12.30;;;11.00;;
56712;SDS011;42589;45.536;9.032;2023-06-05T00:13:30;13.57;;;11.40;;
56712;SDS011;42589;45.536;9.032;2023-06-05T00:16:31;13.95;;;11.63;;
56712;SDS011;42589;45.536;9.032;2023-06-05T00:19:32;12.43;;;10.60;;
56712;SDS011;42589;45.536;9.032;2023-06-05T00:22:35;14.27;;;11.70;;
56712;SDS011;42589;45.536;9.032;2023-06-05T00:25:35;15.13;;;11.43;;
56712;SDS011;42589;45.536;9.032;2023-06-05T00:28:36;12.55;;;11.25;;
56712;SDS011;42589;45.536;9.032;2023-06-05T00:31:38;12.73;;;11.40;;
56712;SDS011;42589;45.536;9.032;2023-06-05T00:34:39;12.95;;;11.63;;
56712;SDS011;42589;45.536;9.032;2023-06-05T00:37:40;15.73;;;12.20;;
56712;SDS011;42589;45.536;9.032;2023-06-05T00:40:41;11.88;;;10.63;;
56712;SDS011;42589;45.536;9.032;2023-06-05T00:43:42;14.20;;;10.75;;
56712;SDS011;42589;45.536;9.032;2023-06-05T00:46:43;12.30;;;11.10;;
56712;SDS011;42589;45.536;9.032;2023-06-05T00:49:45;14.02;;;11.25;;
56712;SDS011;42589;45.536;9.032;2023-06-05T00:52:46;14.38;;;11.85;;
56712;SDS011;42589;45.536;9.032;2023-06-05T00:55:49;14.30;;;11.93;;
56712;SDS011;42589;45.536;9.032;2023-06-05T00:58:52;14.27;;;12.38;;
56712;SDS011;42589;45.536;9.032;2023-06-05T01:01:53;14.98;;;13.38;;
56712;SDS011;42589;45.536;9.032;2023-06-05T01:04:54;18.55;;;15.38;;
56712;SDS011;42589;45.536;9.032;2023-06-05T01:07:56;19.15;;;14.75;;
56712;SDS011;42589;45.536;9.032;2023-06-05T01:10:57;16.98;;;13.60;;
56712;SDS011;42589;45.536;9.032;2023-06-05T01:17:02;17.52;;;14.25;;
56712;SDS011;42589;45.536;9.032;2023-06-05T01:20:05;16.45;;;14.48;;
56712;SDS011;42589;45.536;9.032;2023-06-05T01:23:09;17.02;;;14.27;;
56712;SDS011;42589;45.536;9.032;2023-06-05T01:26:20;17.92;;;14.30;;
56712;SDS011;42589;45.536;9.032;2023-06-05T01:29:29;17.80;;;14.40;;
56712;SDS011;42589;45.536;9.032;2023-06-05T01:32:53;17.92;;;13.23;;
56712;SDS011;42589;45.536;9.032;2023-06-05T01:36:02;16.48;;;13.80;;
56712;SDS011;42589;45.536;9.032;2023-06-05T01:39:05;17.27;;;13.02;;
56712;SDS011;42589;45.536;9.032;2023-06-05T01:42:07;14.80;;;12.73;;
56712;SDS011;42589;45.536;9.032;2023-06-05T01:45:10;16.07;;;13.30;;
56712;SDS011;42589;45.536;9.032;2023-06-05T01:48:12;15.82;;;12.68;;
56712;SDS011;42589;45.536;9.032;2023-06-05T01:51:14;15.07;;;13.15;;
56712;SDS011;42589;45.536;9.032;2023-06-05T01:54:15;15.90;;;13.55;;
56712;SDS011;42589;45.536;9.032;2023-06-05T01:57:18;15.05;;;12.70;;
56712;SDS011;42589;45.536;9.032;2023-06-05T02:00:20;16.05;;;12.48;;
56712;SDS011;42589;45.536;9.032;2023-06-05T02:03:21;15.43;;;12.50;;
56712;SDS011;42589;45.536;9.032;2023-06-05T02:06:22;15.57;;;12.10;;
56712;SDS011;42589;45.536;9.032;2023-06-05T02:09:24;15.30;;;12.20;;
56712;SDS011;42589;45.536;9.032;2023-06-05T02:12:26;13.73;;;11.95;;
56712;SDS011;42589;45.536;9.032;2023-06-05T02:15:27;15.85;;;11.82;;
56712;SDS011;42589;45.536;9.032;2023-06-05T02:18:32;12.77;;;11.43;;
56712;SDS011;42589;45.536;9.032;2023-06-05T02:21:32;12.50;;;11.20;;
56712;SDS011;42589;45.536;9.032;2023-06-05T02:24:34;13.00;;;11.60;;
56712;SDS011;42589;45.536;9.032;2023-06-05T02:27:34;13.82;;;11.80;;
56712;SDS011;42589;45.536;9.032;2023-06-05T02:30:35;15.55;;;12.15;;
56712;SDS011;42589;45.536;9.032;2023-06-05T02:33:37;14.85;;;12.02;;
56712;SDS011;42589;45.536;9.032;2023-06-05T02:36:37;12.95;;;11.48;;
56712;SDS011;42589;45.536;9.032;2023-06-05T02:39:38;12.93;;;11.60;;
56712;SDS011;42589;45.536;9.032;2023-06-05T02:42:39;13.65;;;11.70;;
56712;SDS011;42589;45.536;9.032;2023-06-05T02:45:40;13.07;;;11.52;;
56712;SDS011;42589;45.536;9.032;2023-06-05T02:48:41;16.35;;;11.50;;
56712;SDS011;42589;45.536;9.032;2023-06-05T02:51:42;14.25;;;11.27;;
56712;SDS011;42589;45.536;9.032;2023-06-05T02:54:43;13.52;;;10.98;;
56712;SDS011;42589;45.536;9.032;2023-06-05T02:57:44;14.32;;;11.20;;
56712;SDS011;42589;45.536;9.032;2023-06-05T03:00:48;19.45;;;11.52;;
56712;SDS011;42589;45.536;9.032;2023-06-05T03:03:53;14.35;;;11.15;;
56712;SDS011;42589;45.536;9.032;2023-06-05T03:06:53;15.57;;;10.90;;
56712;SDS011;42589;45.536;9.032;2023-06-05T03:09:56;12.40;;;10.88;;
56712;SDS011;42589;45.536;9.032;2023-06-05T03:12:58;12.73;;;11.02;;
56712;SDS011;42589;45.536;9.032;2023-06-05T03:15:59;15.93;;;11.20;;
56712;SDS011;42589;45.536;9.032;2023-06-05T03:19:06;15.07;;;11.60;;
56712;SDS011;42589;45.536;9.032;2023-06-05T03:25:08;12.30;;;11.00;;
56712;SDS011;42589;45.536;9.032;2023-06-05T03:28:08;14.85;;;12.23;;
56712;SDS011;42589;45.536;9.032;2023-06-05T03:31:09;16.80;;;12.30;;
56712;SDS011;42589;45.536;9.032;2023-06-05T03:34:10;14.93;;;12.38;;
56712;SDS011;42589;45.536;9.032;2023-06-05T03:37:10;15.32;;;12.40;;
56712;SDS011;42589;45.536;9.032;2023-06-05T03:40:11;12.98;;;10.85;;
56712;SDS011;42589;45.536;9.032;2023-06-05T03:43:12;14.38;;;12.18;;
56712;SDS011;42589;45.536;9.032;2023-06-05T03:46:12;14.40;;;12.48;;
56712;SDS011;42589;45.536;9.032;2023-06-05T03:49:18;13.82;;;12.05;;
56712;SDS011;42589;45.536;9.032;2023-06-05T03:52:20;13.65;;;12.25;;
56712;SDS011;42589;45.536;9.032;2023-06-05T03:55:24;16.35;;;12.50;;
56712;SDS011;42589;45.536;9.032;2023-06-05T03:58:24;16.92;;;12.82;;
56712;SDS011;42589;45.536;9.032;2023-06-05T04:01:26;14.48;;;12.98;;
56712;SDS011;42589;45.536;9.032;2023-06-05T04:04:30;19.33;;;13.30;;
56712;SDS011;42589;45.536;9.032;2023-06-05T04:07:30;14.10;;;12.07;;
56712;SDS011;42589;45.536;9.032;2023-06-05T04:10:31;15.70;;;12.35;;
56712;SDS011;42589;45.536;9.032;2023-06-05T04:13:32;15.35;;;12.60;;
56712;SDS011;42589;45.536;9.032;2023-06-05T04:16:33;13.30;;;11.82;;
56712;SDS011;42589;45.536;9.032;2023-06-05T04:19:34;15.75;;;13.57;;
56712;SDS011;42589;45.536;9.032;2023-06-05T04:22:35;20.38;;;13.02;;
56712;SDS011;42589;45.536;9.032;2023-06-05T04:25:36;16.45;;;12.65;;
56712;SDS011;42589;45.536;9.032;2023-06-05T04:28:37;14.45;;;12.60;;
56712;SDS011;42589;45.536;9.032;2023-06-05T04:31:38;17.77;;;13.75;;
56712;SDS011;42589;45.536;9.032;2023-06-05T04:34:40;16.83;;;13.55;;
56712;SDS011;42589;45.536;9.032;2023-06-05T04:37:42;16.33;;;13.70;;
56712;SDS011;42589;45.536;9.032;2023-06-05T04:40:44;17.00;;;13.75;;
56712;SDS011;42589;45.536;9.032;2023-06-05T04:43:45;15.75;;;13.23;;
56712;SDS011;42589;45.536;9.032;2023-06-05T04:46:46;16.85;;;13.68;;
56712;SDS011;42589;45.536;9.032;2023-06-05T04:49:47;15.90;;;12.85;;
56712;SDS011;42589;45.536;9.032;2023-06-05T04:52:51;15.98;;;12.05;;
56712;SDS011;42589;45.536;9.032;2023-06-05T04:55:53;15.55;;;11.98;;
56712;SDS011;42589;45.536;9.032;2023-06-05T04:58:54;13.88;;;12.15;;
56712;SDS011;42589;45.536;9.032;2023-06-05T05:01:55;14.95;;;12.35;;
56712;SDS011;42589;45.536;9.032;2023-06-05T05:04:56;16.35;;;12.50;;
56712;SDS011;42589;45.536;9.032;2023-06-05T05:07:58;15.63;;;12.23;;
56712;SDS011;42589;45.536;9.032;2023-06-05T05:10:59;17.33;;;13.07;;
56712;SDS011;42589;45.536;9.032;2023-06-05T05:14:00;15.25;;;12.45;;
56712;SDS011;42589;45.536;9.032;2023-06-05T05:17:02;15.05;;;12.07;;
56712;SDS011;42589;45.536;9.032;2023-06-05T05:20:03;17.45;;;12.93;;
56712;SDS011;42589;45.536;9.032;2023-06-05T05:23:06;14.32;;;11.48;;
56712;SDS011;42589;45.536;9.032;2023-06-05T05:26:09;11.88;;;9.77;;
56712;SDS011;42589;45.536;9.032;2023-06-05T05:29:10;13.32;;;9.38;;
56712;SDS011;42589;45.536;9.032;2023-06-05T05:32:11;12.48;;;10.13;;
56712;SDS011;42589;45.536;9.032;2023-06-05T05:35:12;14.38;;;10.00;;
56712;SDS011;42589;45.536;9.032;2023-06-05T05:38:13;13.05;;;10.27;;
56712;SDS011;42589;45.536;9.032;2023-06-05T05:41:14;13.27;;;10.52;;
56712;SDS011;42589;45.536;9.032;2023-06-05T05:44:15;11.68;;;10.32;;
56712;SDS011;42589;45.536;9.032;2023-06-05T05:47:15;13.68;;;10.60;;
56712;SDS011;42589;45.536;9.032;2023-06-05T05:50:16;12.23;;;9.85;;
56712;SDS011;42589;45.536;9.032;2023-06-05T05:53:20;15.25;;;10.43;;
56712;SDS011;42589;45.536;9.032;2023-06-05T05:56:26;14.05;;;9.60;;
56712;SDS011;42589;45.536;9.032;2023-06-05T05:59:27;14.10;;;10.82;;
56712;SDS011;42589;45.536;9.032;2023-06-05T06:02:28;12.57;;;10.48;;
56712;SDS011;42589;45.536;9.032;2023-06-05T06:05:31;13.70;;;10.63;;
56712;SDS011;42589;45.536;9.032;2023-06-05T06:08:32;16.25;;;10.48;;
56712;SDS011;42589;45.536;9.032;2023-06-05T06:11:35;14.77;;;11.70;;
56712;SDS011;42589;45.536;9.032;2023-06-05T06:14:37;12.17;;;10.97;;
56712;SDS011;42589;45.536;9.032;2023-06-05T06:17:37;13.70;;;10.98;;
56712;SDS011;42589;45.536;9.032;2023-06-05T06:20:38;12.88;;;11.38;;
56712;SDS011;42589;45.536;9.032;2023-06-05T06:23:39;13.73;;;12.02;;
56712;SDS011;42589;45.536;9.032;2023-06-05T06:26:40;12.65;;;10.77;;
56712;SDS011;42589;45.536;9.032;2023-06-05T06:29:49;17.33;;;13.07;;
56712;SDS011;42589;45.536;9.032;2023-06-05T06:32:54;15.25;;;11.88;;
56712;SDS011;42589;45.536;9.032;2023-06-05T06:36:01;16.05;;;11.98;;
56712;SDS011;42589;45.536;9.032;2023-06-05T06:42:41;15.07;;;12.82;;
56712;SDS011;42589;45.536;9.032;2023-06-05T06:45:43;16.63;;;13.15;;
56712;SDS011;42589;45.536;9.032;2023-06-05T06:48:46;17.10;;;13.25;;
56712;SDS011;42589;45.536;9.032;2023-06-05T06:51:47;18.02;;;13.57;;
56712;SDS011;42589;45.536;9.032;2023-06-05T06:54:47;18.25;;;13.82;;
56712;SDS011;42589;45.536;9.032;2023-06-05T06:57:48;18.50;;;13.77;;
56712;SDS011;42589;45.536;9.032;2023-06-05T07:00:49;16.85;;;13.02;;
56712;SDS011;42589;45.536;9.032;2023-06-05T07:03:51;15.75;;;12.45;;
56712;SDS011;42589;45.536;9.032;2023-06-05T07:06:52;14.00;;;10.13;;
56712;SDS011;42589;45.536;9.032;2023-06-05T07:09:53;9.45;;;8.45;;
56712;SDS011;42589;45.536;9.032;2023-06-05T07:12:57;18.10;;;10.27;;
56712;SDS011;42589;45.536;9.032;2023-06-05T07:15:58;13.93;;;11.80;;
56712;SDS011;42589;45.536;9.032;2023-06-05T07:18:58;17.85;;;12.55;;
56712;SDS011;42589;45.536;9.032;2023-06-05T07:22:00;12.68;;;10.57;;
56712;SDS011;42589;45.536;9.032;2023-06-05T07:25:04;10.43;;;8.23;;
56712;SDS011;42589;45.536;9.032;2023-06-05T07:28:09;9.10;;;8.00;;
56712;SDS011;42589;45.536;9.032;2023-06-05T07:31:13;10.45;;;7.85;;
56712;SDS011;42589;45.536;9.032;2023-06-05T07:34:14;12.38;;;7.85;;
56712;SDS011;42589;45.536;9.032;2023-06-05T07:37:15;11.05;;;8.20;;
56712;SDS011;42589;45.536;9.032;2023-06-05T07:40:16;9.50;;;8.48;;
56712;SDS011;42589;45.536;9.032;2023-06-05T07:43:17;11.23;;;8.10;;
56712;SDS011;42589;45.536;9.032;2023-06-05T07:46:18;10.18;;;8.40;;
56712;SDS011;42589;45.536;9.032;2023-06-05T07:49:20;11.32;;;8.40;;
56712;SDS011;42589;45.536;9.032;2023-06-05T07:52:23;10.40;;;8.30;;
56712;SDS011;42589;45.536;9.032;2023-06-05T07:55:24;10.77;;;8.20;;
56712;SDS011;42589;45.536;9.032;2023-06-05T07:58:25;10.95;;;7.63;;
56712;SDS011;42589;45.536;9.032;2023-06-05T08:01:28;10.05;;;7.60;;
56712;SDS011;42589;45.536;9.032;2023-06-05T08:04:30;8.13;;;6.85;;
56712;SDS011;42589;45.536;9.032;2023-06-05T08:07:31;7.22;;;6.05;;
56712;SDS011;42589;45.536;9.032;2023-06-05T08:10:32;9.50;;;7.05;;
56712;SDS011;42589;45.536;9.032;2023-06-05T08:13:36;9.57;;;7.10;;
56712;SDS011;42589;45.536;9.032;2023-06-05T08:16:37;7.95;;;6.07;;
56712;SDS011;42589;45.536;9.032;2023-06-05T08:19:38;5.72;;;5.03;;
56712;SDS011;42589;45.536;9.032;2023-06-05T08:22:39;6.00;;;4.85;;
56712;SDS011;42589;45.536;9.032;2023-06-05T08:25:43;6.80;;;4.88;;
56712;SDS011;42589;45.536;9.032;2023-06-05T08:28:44;5.93;;;4.43;;
56712;SDS011;42589;45.536;9.032;2023-06-05T08:31:44;4.95;;;4.43;;
56712;SDS011;42589;45.536;9.032;2023-06-05T08:34:45;4.88;;;3.97;;
56712;SDS011;42589;45.536;9.032;2023-06-05T08:37:49;7.93;;;5.75;;
56712;SDS011;42589;45.536;9.032;2023-06-05T08:44:01;6.68;;;5.78;;
56712;SDS011;42589;45.536;9.032;2023-06-05T08:47:03;6.53;;;5.55;;
56712;SDS011;42589;45.536;9.032;2023-06-05T08:50:05;7.57;;;6.35;;
56712;SDS011;42589;45.536;9.032;2023-06-05T08:53:07;8.32;;;7.28;;
56712;SDS011;42589;45.536;9.032;2023-06-05T08:56:08;8.25;;;7.07;;
56712;SDS011;42589;45.536;9.032;2023-06-05T08:59:09;7.07;;;6.38;;
56712;SDS011;42589;45.536;9.032;2023-06-05T09:02:14;10.80;;;8.43;;
56712;SDS011;42589;45.536;9.032;2023-06-05T09:05:16;8.63;;;7.72;;
56712;SDS011;42589;45.536;9.032;2023-06-05T09:08:17;8.52;;;7.47;;
56712;SDS011;42589;45.536;9.032;2023-06-05T09:11:20;8.27;;;6.07;;
56712;SDS011;42589;45.536;9.032;2023-06-05T09:14:25;7.38;;;6.43;;
56712;SDS011;42589;45.536;9.032;2023-06-05T09:17:26;7.63;;;6.70;;
56712;SDS011;42589;45.536;9.032;2023-06-05T09:20:27;7.65;;;6.57;;
56712;SDS011;42589;45.536;9.032;2023-06-05T09:23:29;8.20;;;6.40;;
56712;SDS011;42589;45.536;9.032;2023-06-05T09:26:33;7.30;;;6.50;;
56712;SDS011;42589;45.536;9.032;2023-06-05T09:29:45;8.00;;;7.00;;
56712;SDS011;42589;45.536;9.032;2023-06-05T09:32:46;9.43;;;7.95;;
56712;SDS011;42589;45.536;9.032;2023-06-05T09:36:00;9.68;;;8.15;;
56712;SDS011;42589;45.536;9.032;2023-06-05T09:39:15;9.70;;;8.10;;
56712;SDS011;42589;45.536;9.032;2023-06-05T09:42:16;8.68;;;7.68;;
56712;SDS011;42589;45.536;9.032;2023-06-05T09:45:40;12.02;;;10.05;;
56712;SDS011;42589;45.536;9.032;2023-06-05T09:48:43;13.13;;;8.93;;
56712;SDS011;42589;45.536;9.032;2023-06-05T09:51:55;13.27;;;8.82;;
56712;SDS011;42589;45.536;9.032;2023-06-05T09:54:59;9.98;;;8.27;;
56712;SDS011;42589;45.536;9.032;2023-06-05T09:58:04;9.88;;;8.15;;
56712;SDS011;42589;45.536;9.032;2023-06-05T10:01:14;9.07;;;7.90;;
56712;SDS011;42589;45.536;9.032;2023-06-05T10:04:28;8.70;;;7.80;;
56712;SDS011;42589;45.536;9.032;2023-06-05T10:07:32;12.38;;;9.65;;
56712;SDS011;42589;45.536;9.032;2023-06-05T10:10:33;10.52;;;8.70;;
56712;SDS011;42589;45.536;9.032;2023-06-05T10:13:36;8.27;;;7.25;;
56712;SDS011;42589;45.536;9.032;2023-06-05T10:16:37;8.80;;;7.15;;
56712;SDS011;42589;45.536;9.032;2023-06-05T10:19:42;11.27;;;8.82;;
56712;SDS011;42589;45.536;9.032;2023-06-05T10:22:44;10.73;;;8.20;;
56712;SDS011;42589;45.536;9.032;2023-06-05T10:25:46;9.05;;;7.07;;
56712;SDS011;42589;45.536;9.032;2023-06-05T10:38:24;10.73;;;9.20;;
56712;SDS011;42589;45.536;9.032;2023-06-05T10:41:26;12.40;;;10.63;;
56712;SDS011;42589;45.536;9.032;2023-06-05T10:44:42;10.68;;;9.57;;
56712;SDS011;42589;45.536;9.032;2023-06-05T10:47:52;12.00;;;9.45;;
56712;SDS011;42589;45.536;9.032;2023-06-05T11:01:21;10.80;;;9.40;;
56712;SDS011;42589;45.536;9.032;2023-06-05T11:04:22;11.57;;;9.65;;
56712;SDS011;42589;45.536;9.032;2023-06-05T11:07:28;10.52;;;9.40;;
56712;SDS011;42589;45.536;9.032;2023-06-05T11:10:30;12.85;;;9.90;;
56712;SDS011;42589;45.536;9.032;2023-06-05T11:16:57;11.90;;;10.32;;
56712;SDS011;42589;45.536;9.032;2023-06-05T11:19:58;12.25;;;10.80;;
56712;SDS011;42589;45.536;9.032;2023-06-05T11:26:38;12.93;;;11.60;;
56712;SDS011;42589;45.536;9.032;2023-06-05T11:29:40;12.90;;;10.43;;
56712;SDS011;42589;45.536;9.032;2023-06-05T11:32:44;11.43;;;10.27;;
56712;SDS011;42589;45.536;9.032;2023-06-05T11:35:46;13.90;;;11.02;;
56712;SDS011;42589;45.536;9.032;2023-06-05T11:38:52;11.90;;;9.95;;
56712;SDS011;42589;45.536;9.032;2023-06-05T11:41:54;9.50;;;8.60;;
56712;SDS011;42589;45.536;9.032;2023-06-05T11:44:55;12.95;;;8.77;;
56712;SDS011;42589;45.536;9.032;2023-06-05T11:48:14;10.68;;;8.82;;
56712;SDS011;42589;45.536;9.032;2023-06-05T11:51:16;9.07;;;7.78;;
56712;SDS011;42589;45.536;9.032;2023-06-05T11:54:26;8.02;;;7.22;;
56712;SDS011;42589;45.536;9.032;2023-06-05T11:57:29;8.23;;;7.03;;
56712;SDS011;42589;45.536;9.032;2023-06-05T12:00:39;8.23;;;6.90;;
56712;SDS011;42589;45.536;9.032;2023-06-05T12:03:41;8.48;;;7.47;;
56712;SDS011;42589;45.536;9.032;2023-06-05T12:06:44;9.90;;;8.90;;
56712;SDS011;42589;45.536;9.032;2023-06-05T12:09:51;8.52;;;7.72;;
56712;SDS011;42589;45.536;9.032;2023-06-05T12:12:53;8.93;;;7.55;;
56712;SDS011;42589;45.536;9.032;2023-06-05T12:15:59;7.47;;;6.63;;
56712;SDS011;42589;45.536;9.032;2023-06-05T12:19:01;6.78;;;5.82;;
56712;SDS011;42589;45.536;9.032;2023-06-05T12:22:04;7.40;;;6.55;;
56712;SDS011;42589;45.536;9.032;2023-06-05T12:25:21;9.50;;;7.93;;
56712;SDS011;42589;45.536;9.032;2023-06-05T12:28:23;8.43;;;7.55;;
56712;SDS011;42589;45.536;9.032;2023-06-05T12:31:35;8.27;;;6.43;;
56712;SDS011;42589;45.536;9.032;2023-06-05T12:34:44;8.13;;;7.05;;
56712;SDS011;42589;45.536;9.032;2023-06-05T12:37:47;6.20;;;5.60;;
56712;SDS011;42589;45.536;9.032;2023-06-05T12:40:49;6.05;;;4.75;;
56712;SDS011;42589;45.536;9.032;2023-06-05T12:44:00;4.95;;;4.45;;
56712;SDS011;42589;45.536;9.032;2023-06-05T12:47:07;5.50;;;5.00;;
56712;SDS011;42589;45.536;9.032;2023-06-05T12:50:12;5.00;;;4.50;;
56712;SDS011;42589;45.536;9.032;2023-06-05T12:53:13;4.68;;;4.22;;
56712;SDS011;42589;45.536;9.032;2023-06-05T12:56:13;5.65;;;4.78;;
56712;SDS011;42589;45.536;9.032;2023-06-05T12:59:15;6.20;;;5.00;;
56712;SDS011;42589;45.536;9.032;2023-06-05T13:02:16;7.72;;;4.70;;
56712;SDS011;42589;45.536;9.032;2023-06-05T13:05:17;5.03;;;4.18;;
56712;SDS011;42589;45.536;9.032;2023-06-05T13:08:18;4.65;;;3.80;;
56712;SDS011;42589;45.536;9.032;2023-06-05T13:11:19;4.75;;;3.78;;
56712;SDS011;42589;45.536;9.032;2023-06-05T13:14:19;4.75;;;3.95;;
56712;SDS011;42589;45.536;9.032;2023-06-05T13:17:20;5.10;;;3.85;;
56712;SDS011;42589;45.536;9.032;2023-06-05T13:20:21;4.88;;;3.53;;
56712;SDS011;42589;45.536;9.032;2023-06-05T13:23:22;3.80;;;3.40;;
56712;SDS011;42589;45.536;9.032;2023-06-05T13:26:23;4.65;;;3.35;;
56712;SDS011;42589;45.536;9.032;2023-06-05T13:29:26;3.30;;;3.00;;
56712;SDS011;42589;45.536;9.032;2023-06-05T13:32:27;2.85;;;2.63;;
56712;SDS011;42589;45.536;9.032;2023-06-05T13:35:28;3.03;;;2.72;;
56712;SDS011;42589;45.536;9.032;2023-06-05T13:38:29;4.38;;;2.72;;
56712;SDS011;42589;45.536;9.032;2023-06-05T13:41:31;5.25;;;2.70;;
56712;SDS011;42589;45.536;9.032;2023-06-05T13:44:32;3.40;;;2.70;;
56712;SDS011;42589;45.536;9.032;2023-06-05T13:47:32;2.65;;;2.40;;
56712;SDS011;42589;45.536;9.032;2023-06-05T13:50:33;4.13;;;2.30;;
56712;SDS011;42589;45.536;9.032;2023-06-05T13:53:34;3.67;;;2.42;;
56712;SDS011;42589;45.536;9.032;2023-06-05T13:56:35;2.72;;;2.40;;
56712;SDS011;42589;45.536;9.032;2023-06-05T13:59:36;4.18;;;2.58;;
56712;SDS011;42589;45.536;9.032;2023-06-05T14:02:37;4.43;;;1.75;;
56712;SDS011;42589;45.536;9.032;2023-06-05T14:05:39;2.20;;;2.00;;
56712;SDS011;42589;45.536;9.032;2023-06-05T14:08:41;2.40;;;1.67;;
56712;SDS011;42589;45.536;9.032;2023-06-05T14:11:41;1.80;;;1.70;;
56712;SDS011;42589;45.536;9.032;2023-06-05T14:17:46;2.30;;;1.40;;
56712;SDS011;42589;45.536;9.032;2023-06-05T14:20:48;1.98;;;1.50;;
56712;SDS011;42589;45.536;9.032;2023-06-05T14:23:49;1.65;;;1.33;;
56712;SDS011;42589;45.536;9.032;2023-06-05T14:26:50;1.60;;;1.50;;
56712;SDS011;42589;45.536;9.032;2023-06-05T14:29:51;2.28;;;1.60;;
56712;SDS011;42589;45.536;9.032;2023-06-05T14:32:53;4.18;;;1.90;;
56712;SDS011;42589;45.536;9.032;2023-06-05T14:35:54;2.78;;;2.03;;
56712;SDS011;42589;45.536;9.032;2023-06-05T14:38:54;1.60;;;1.40;;
56712;SDS011;42589;45.536;9.032;2023-06-05T14:41:55;2.33;;;1.95;;
56712;SDS011;42589;45.536;9.032;2023-06-05T14:44:56;3.33;;;2.53;;
56712;SDS011;42589;45.536;9.032;2023-06-05T14:47:57;3.65;;;1.98;;
56712;SDS011;42589;45.536;9.032;2023-06-05T14:50:57;4.00;;;1.85;;
56712;SDS011;42589;45.536;9.032;2023-06-05T14:53:59;2.22;;;1.63;;
56712;SDS011;42589;45.536;9.032;2023-06-05T14:57:01;1.70;;;1.60;;
56712;SDS011;42589;45.536;9.032;2023-06-05T15:00:02;2.10;;;1.33;;
56712;SDS011;42589;45.536;9.032;2023-06-05T15:03:05;2.10;;;1.90;;
56712;SDS011;42589;45.536;9.032;2023-06-05T15:06:05;1.52;;;1.42;;
56712;SDS011;42589;45.536;9.032;2023-06-05T15:09:07;1.98;;;1.20;;
56712;SDS011;42589;45.536;9.032;2023-06-05T15:12:07;2.90;;;1.23;;
56712;SDS011;42589;45.536;9.032;2023-06-05T15:15:09;2.63;;;1.60;;
56712;SDS011;42589;45.536;9.032;2023-06-05T15:18:14;1.85;;;1.40;;
56712;SDS011;42589;45.536;9.032;2023-06-05T15:21:21;2.05;;;1.80;;
56712;SDS011;42589;45.536;9.032;2023-06-05T15:24:23;2.10;;;1.73;;
56712;SDS011;42589;45.536;9.032;2023-06-05T15:27:24;1.98;;;1.70;;
56712;SDS011;42589;45.536;9.032;2023-06-05T15:30:25;2.08;;;1.63;;
56712;SDS011;42589;45.536;9.032;2023-06-05T15:33:26;1.50;;;1.38;;
56712;SDS011;42589;45.536;9.032;2023-06-05T15:36:26;2.70;;;1.80;;
56712;SDS011;42589;45.536;9.032;2023-06-05T15:39:27;2.50;;;2.08;;
56712;SDS011;42589;45.536;9.032;2023-06-05T15:42:28;2.10;;;1.90;;
56712;SDS011;42589;45.536;9.032;2023-06-05T15:45:34;2.25;;;2.05;;
56712;SDS011;42589;45.536;9.032;2023-06-05T15:48:35;3.88;;;2.30;;
56712;SDS011;42589;45.536;9.032;2023-06-05T15:51:37;2.78;;;2.13;;
56712;SDS011;42589;45.536;9.032;2023-06-05T15:54:38;3.28;;;1.70;;
56712;SDS011;42589;45.536;9.032;2023-06-05T15:57:39;1.80;;;1.70;;
56712;SDS011;42589;45.536;9.032;2023-06-05T16:00:41;1.65;;;1.30;;
56712;SDS011;42589;45.536;9.032;2023-06-05T16:03:43;1.55;;;1.20;;
56712;SDS011;42589;45.536;9.032;2023-06-05T16:06:45;1.85;;;1.30;;
56712;SDS011;42589;45.536;9.032;2023-06-05T16:09:45;2.58;;;1.55;;
56712;SDS011;42589;45.536;9.032;2023-06-05T16:12:46;1.77;;;1.60;;
56712;SDS011;42589;45.536;9.032;2023-06-05T16:15:47;3.33;;;1.65;;
56712;SDS011;42589;45.536;9.032;2023-06-05T16:18:48;2.00;;;1.60;;
56712;SDS011;42589;45.536;9.032;2023-06-05T16:21:48;4.45;;;2.00;;
56712;SDS011;42589;45.536;9.032;2023-06-05T16:24:49;2.63;;;1.80;;
56712;SDS011;42589;45.536;9.032;2023-06-05T16:27:51;1.52;;;1.42;;
56712;SDS011;42589;45.536;9.032;2023-06-05T16:30:53;2.00;;;1.75;;
56712;SDS011;42589;45.536;9.032;2023-06-05T16:33:59;2.35;;;1.83;;
56712;SDS011;42589;45.536;9.032;2023-06-05T16:37:01;1.63;;;1.52;;
56712;SDS011;42589;45.536;9.032;2023-06-05T16:40:02;2.15;;;1.63;;
56712;SDS011;42589;45.536;9.032;2023-06-05T16:43:03;4.72;;;1.75;;
56712;SDS011;42589;45.536;9.032;2023-06-05T16:46:04;1.98;;;1.35;;
56712;SDS011;42589;45.536;9.032;2023-06-05T16:49:05;1.80;;;1.50;;
56712;SDS011;42589;45.536;9.032;2023-06-05T16:52:06;1.85;;;1.58;;
56712;SDS011;42589;45.536;9.032;2023-06-05T16:55:07;1.40;;;1.30;;
56712;SDS011;42589;45.536;9.032;2023-06-05T16:58:08;2.72;;;1.60;;
56712;SDS011;42589;45.536;9.032;2023-06-05T17:01:09;4.53;;;2.17;;
56712;SDS011;42589;45.536;9.032;2023-06-05T17:04:10;3.45;;;1.95;;
56712;SDS011;42589;45.536;9.032;2023-06-05T17:07:11;2.40;;;1.77;;
56712;SDS011;42589;45.536;9.032;2023-06-05T17:10:12;2.85;;;1.70;;
56712;SDS011;42589;45.536;9.032;2023-06-05T17:13:12;3.50;;;2.40;;
56712;SDS011;42589;45.536;9.032;2023-06-05T17:16:13;4.47;;;2.30;;
56712;SDS011;42589;45.536;9.032;2023-06-05T17:19:14;2.85;;;2.00;;
56712;SDS011;42589;45.536;9.032;2023-06-05T17:22:15;2.92;;;1.52;;
56712;SDS011;42589;45.536;9.032;2023-06-05T17:25:16;1.92;;;1.40;;
56712;SDS011;42589;45.536;9.032;2023-06-05T17:28:17;1.58;;;1.48;;
56712;SDS011;42589;45.536;9.032;2023-06-05T17:31:18;1.95;;;1.50;;
56712;SDS011;42589;45.536;9.032;2023-06-05T17:34:19;2.30;;;1.40;;
56712;SDS011;42589;45.536;9.032;2023-06-05T17:37:20;1.92;;;1.58;;
56712;SDS011;42589;45.536;9.032;2023-06-05T17:40:21;2.75;;;1.67;;
56712;SDS011;42589;45.536;9.032;2023-06-05T17:43:22;2.67;;;1.98;;
56712;SDS011;42589;45.536;9.032;2023-06-05T17:46:24;3.95;;;2.03;;
56712;SDS011;42589;45.536;9.032;2023-06-05T17:49:25;2.35;;;2.13;;
56712;SDS011;42589;45.536;9.032;2023-06-05T17:52:28;2.63;;;2.05;;
56712;SDS011;42589;45.536;9.032;2023-06-05T17:55:30;2.13;;;1.92;;
56712;SDS011;42589;45.536;9.032;2023-06-05T17:58:30;2.00;;;1.77;;
56712;SDS011;42589;45.536;9.032;2023-06-05T18:01:32;2.28;;;1.90;;
56712;SDS011;42589;45.536;9.032;2023-06-05T18:04:33;2.65;;;1.80;;
56712;SDS011;42589;45.536;9.032;2023-06-05T18:07:34;4.57;;;2.70;;
56712;SDS011;42589;45.536;9.032;2023-06-05T18:10:35;3.28;;;2.45;;
56712;SDS011;42589;45.536;9.032;2023-06-05T18:13:37;4.03;;;3.10;;
56712;SDS011;42589;45.536;9.032;2023-06-05T18:16:37;3.92;;;3.60;;
56712;SDS011;42589;45.536;9.032;2023-06-05T18:19:38;4.22;;;3.80;;
56712;SDS011;42589;45.536;9.032;2023-06-05T18:22:40;3.58;;;3.10;;
56712;SDS011;42589;45.536;9.032;2023-06-05T18:25:41;4.50;;;2.92;;
56712;SDS011;42589;45.536;9.032;2023-06-05T18:28:44;3.53;;;2.60;;
56712;SDS011;42589;45.536;9.032;2023-06-05T18:31:47;3.50;;;3.20;;
56712;SDS011;42589;45.536;9.032;2023-06-05T18:34:48;3.63;;;2.78;;
56712;SDS011;42589;45.536;9.032;2023-06-05T18:37:49;4.15;;;3.67;;
56712;SDS011;42589;45.536;9.032;2023-06-05T18:40:50;3.90;;;3.20;;
56712;SDS011;42589;45.536;9.032;2023-06-05T18:43:51;3.70;;;3.00;;
56712;SDS011;42589;45.536;9.032;2023-06-05T18:46:52;5.15;;;3.97;;